Du har inga inställningar för hoppväder.nu

Hoppväder.nu

Senast uppdaterat 06:58

UTC-tid

2020-01-29 kl. 05:58


Sol och måne

Solen går upp 7:55 och går ner 16:05 (beräknade cirkatider)
Nästa fullmåne blir om 11 dagar (2020-02-09)

METAR

ESSV (Visby)
(8 minuter sedan)
ESSV 290550Z 11004KT 3700 BR SCT005 BKN012 OVC028 03/03 Q0988 RWY 21 WET OR WATER PATCHES 51-100 PCT FCT 0.80=















TAF

ESSV (Visby)
(28 minuter sedan)
ESSV 290530Z 2906/2915 15006KT 5000 SCT007 BKN015 TEMPO 2906/2915 2000 RA BKN007=





Kodnycklar till TAF och METAR






LHP

(Visby är område H2a i Sydöstra delen)







Spotting

Hur fungerar spotthjälpen och Vindkartan?

Markvind är ca 0 m/s.
Vind på 600 m ca 0 m/s.
Vind på 1500 m ca 0 m/s.
Vind på 3000 m ca 0 m/s.
OlleBertil flyger ca 41 m/s över marken på finalen.
Du driver ca 0 m bakåt i frifall. (0 m)
Lämplig spot är 7 sekunder eller 288 m innan gropen.
(-7s eller -288 m)
För små grupper eller ensamhoppare bör man vänta 4-5 sekunder mellan grupperna.
För större grupper bör man vänta 7-9 sekunder mellan grupperna.


Vindkartan

Senast uppdaterad 06:58




All data kommer från LFV.se